createdAt,value
2023-01-30T00:05:13.104Z,80.15
2023-01-30T00:07:40.670Z,91.28
2023-01-30T00:10:08.366Z,89.15
2023-01-30T00:12:35.937Z,87.72
2023-01-30T00:15:03.490Z,76.88
2023-01-30T00:17:31.993Z,87.38
2023-01-30T00:19:59.424Z,85.30
2023-01-30T00:22:27.293Z,82.85
2023-01-30T00:24:54.795Z,93.32
2023-01-30T00:27:24.602Z,92.05
2023-01-30T00:30:02.488Z,86.43
2023-01-30T00:32:31.516Z,85.32
2023-01-30T00:34:59.112Z,82.15
2023-01-30T00:37:29.031Z,86.40
2023-01-30T00:39:58.406Z,91.85
2023-01-30T00:42:46.498Z,92.32
2023-01-30T00:45:33.025Z,91.68
2023-01-30T00:48:01.215Z,89.82
2023-01-30T00:50:43.741Z,89.32
2023-01-30T00:53:13.740Z,92.72
2023-01-30T00:55:43.714Z,87.97
2023-01-30T00:58:11.423Z,93.70
2023-01-30T01:03:34.594Z,94.18
2023-01-30T01:06:02.447Z,90.65
2023-01-30T01:08:30.095Z,91.45
2023-01-30T01:10:57.645Z,91.47
2023-01-30T01:13:26.332Z,92.50
2023-01-30T01:15:53.797Z,90.80
2023-01-30T01:18:21.744Z,87.43
2023-01-30T01:20:49.506Z,96.20
2023-01-30T01:23:17.898Z,94.63
2023-01-30T01:25:45.929Z,98.47
2023-01-30T01:28:13.919Z,87.50
2023-01-30T01:30:44.962Z,96.32
2023-01-30T01:33:12.836Z,89.18
2023-01-30T01:35:43.599Z,88.90
2023-01-30T01:38:11.772Z,88.38
2023-01-30T01:40:59.098Z,88.53
2023-01-30T01:43:26.851Z,87.13
2023-01-30T01:45:57.778Z,76.93
2023-01-30T01:48:27.532Z,82.53
2023-01-30T01:51:03.860Z,89.70
2023-01-30T01:53:34.916Z,85.28
2023-01-30T01:56:05.047Z,84.28
2023-01-30T01:58:36.338Z,87.43
2023-01-30T02:01:04.563Z,82.20
2023-01-30T02:03:35.383Z,88.97
2023-01-30T02:06:04.180Z,92.30
2023-01-30T02:08:35.109Z,91.63
2023-01-30T02:11:15.103Z,87.72
2023-01-30T02:13:42.673Z,86.82
2023-01-30T02:16:10.251Z,75.18
2023-01-30T02:18:41.112Z,86.53
2023-01-30T02:23:38.326Z,92.30
2023-01-30T02:26:06.419Z,88.10
2023-01-30T02:28:37.227Z,86.25
2023-01-30T02:31:23.824Z,85.07
2023-01-30T02:33:57.138Z,86.88
2023-01-30T02:36:34.308Z,91.90
2023-01-30T02:39:26.963Z,80.65
2023-01-30T02:42:12.339Z,87.80
2023-01-30T02:45:00.103Z,83.43
2023-01-30T02:47:52.340Z,80.00
2023-01-30T02:50:21.390Z,85.30
2023-01-30T02:52:50.488Z,80.63
2023-01-30T02:55:26.346Z,82.93
2023-01-30T02:57:54.946Z,83.57
2023-01-30T03:00:29.162Z,74.72
2023-01-30T03:03:15.844Z,81.68
2023-01-30T03:05:46.423Z,77.50
2023-01-30T03:08:13.789Z,81.60
2023-01-30T03:10:54.263Z,85.75
2023-01-30T03:15:51.697Z,77.90
2023-01-30T03:18:20.433Z,81.15
2023-01-30T03:20:48.723Z,71.20
2023-01-30T03:23:16.719Z,77.15
2023-01-30T03:25:45.468Z,75.55
2023-01-30T03:28:15.406Z,76.38
2023-01-30T03:30:43.118Z,72.78
2023-01-30T03:33:11.052Z,70.05
2023-01-30T03:35:41.393Z,60.78
2023-01-30T03:38:10.422Z,59.58
2023-01-30T03:40:38.530Z,56.88
2023-01-30T03:43:06.201Z,55.05
2023-01-30T03:45:34.587Z,55.63
2023-01-30T03:48:04.523Z,47.38
2023-01-30T03:50:33.338Z,46.47
2023-01-30T03:53:01.985Z,45.33
2023-01-30T03:55:30.657Z,42.35
2023-01-30T03:57:58.554Z,45.05
2023-01-30T04:00:29.478Z,46.47
2023-01-30T04:02:58.265Z,37.63
2023-01-30T04:05:26.327Z,46.45
2023-01-30T04:07:59.052Z,36.92
2023-01-30T04:10:27.486Z,41.20
2023-01-30T04:12:55.194Z,36.65
2023-01-30T04:15:24.355Z,36.47
2023-01-30T04:18:10.379Z,39.70
2023-01-30T04:21:00.740Z,38.15
2023-01-30T04:23:36.737Z,39.90
2023-01-30T04:26:04.839Z,37.15
2023-01-30T04:28:37.901Z,34.60
2023-01-30T04:31:06.053Z,38.38
2023-01-30T04:33:53.152Z,41.03
2023-01-30T04:36:21.388Z,38.42
2023-01-30T04:38:50.457Z,32.72
2023-01-30T04:41:22.188Z,39.78
2023-01-30T04:43:50.897Z,33.17
2023-01-30T04:46:47.894Z,35.15
2023-01-30T04:49:16.300Z,35.10
2023-01-30T04:51:44.777Z,39.47
2023-01-30T04:54:12.615Z,32.13
2023-01-30T04:56:40.332Z,30.92
2023-01-30T04:59:08.153Z,47.13
2023-01-30T05:01:41.800Z,40.35
2023-01-30T05:04:09.589Z,48.47
2023-01-30T05:06:37.490Z,48.75
2023-01-30T05:09:05.687Z,41.40
2023-01-30T05:11:35.062Z,39.38
2023-01-30T05:14:02.628Z,43.72
2023-01-30T05:16:30.414Z,31.55
2023-01-30T05:18:58.180Z,36.03
2023-01-30T05:21:28.175Z,32.10
2023-01-30T05:23:57.451Z,31.90
2023-01-30T05:26:27.028Z,30.75
2023-01-30T05:28:58.635Z,34.97
2023-01-30T05:31:26.241Z,34.03
2023-01-30T05:33:54.174Z,44.28
2023-01-30T05:36:24.728Z,40.25
2023-01-30T05:41:26.090Z,36.00
2023-01-30T05:43:53.657Z,27.88
2023-01-30T05:46:21.366Z,30.75
2023-01-30T05:48:49.420Z,25.63
2023-01-30T05:51:19.043Z,37.83
2023-01-30T05:53:47.552Z,35.80
2023-01-30T05:56:15.989Z,25.48
2023-01-30T05:58:43.937Z,23.83
2023-01-30T06:01:12.704Z,25.67
2023-01-30T06:03:40.490Z,28.77
2023-01-30T06:06:08.305Z,31.33
2023-01-30T06:08:35.953Z,31.75
2023-01-30T06:11:06.708Z,20.30
2023-01-30T06:13:35.318Z,21.83
2023-01-30T06:16:03.040Z,26.85
2023-01-30T06:18:31.063Z,27.05
2023-01-30T06:20:58.776Z,26.83
2023-01-30T06:23:26.365Z,22.90
2023-01-30T06:25:55.778Z,25.23
2023-01-30T06:28:24.135Z,16.63
2023-01-30T06:30:55.035Z,22.48
2023-01-30T06:33:22.901Z,30.83
2023-01-30T06:35:51.776Z,20.67
2023-01-30T06:38:24.700Z,19.45
2023-01-30T06:40:54.291Z,23.33
2023-01-30T06:43:23.124Z,14.88
2023-01-30T06:45:52.245Z,19.05
2023-01-30T06:48:21.315Z,18.13
2023-01-30T06:50:48.974Z,25.00
2023-01-30T06:53:30.584Z,23.40
2023-01-30T06:55:59.012Z,22.38
2023-01-30T06:58:26.639Z,24.55
2023-01-30T07:00:54.622Z,19.58
2023-01-30T07:03:26.139Z,17.25
2023-01-30T07:05:53.846Z,19.92
2023-01-30T07:08:26.951Z,25.42
2023-01-30T07:10:54.965Z,17.67
2023-01-30T07:13:22.523Z,29.08
2023-01-30T07:15:51.092Z,25.13
2023-01-30T07:18:18.736Z,20.23
2023-01-30T07:20:50.049Z,20.83
2023-01-30T07:23:18.313Z,20.40
2023-01-30T07:25:46.171Z,22.13
2023-01-30T07:28:13.705Z,26.27
2023-01-30T07:30:41.366Z,22.38
2023-01-30T07:33:08.992Z,24.20
2023-01-30T07:35:37.284Z,25.05
2023-01-30T07:38:06.168Z,26.45
2023-01-30T07:40:33.709Z,29.17
2023-01-30T07:43:04.355Z,23.20
2023-01-30T07:45:38.109Z,21.70
2023-01-30T07:48:06.299Z,28.65
2023-01-30T07:50:34.758Z,27.83
2023-01-30T07:53:08.529Z,26.70
2023-01-30T07:55:38.747Z,32.03
2023-01-30T07:58:06.247Z,31.85
2023-01-30T08:00:34.562Z,25.73
2023-01-30T08:03:02.344Z,25.20
2023-01-30T08:05:30.001Z,41.97
2023-01-30T08:07:57.958Z,32.28
2023-01-30T08:10:25.602Z,29.52
2023-01-30T08:12:53.179Z,30.23
2023-01-30T08:15:22.911Z,42.15
2023-01-30T08:17:54.744Z,29.08
2023-01-30T08:20:22.515Z,38.63
2023-01-30T08:22:50.228Z,36.25
2023-01-30T08:25:18.233Z,36.22
2023-01-30T08:27:45.979Z,26.15
2023-01-30T08:30:13.926Z,34.47
2023-01-30T08:32:41.540Z,29.50
2023-01-30T08:35:09.834Z,36.53
2023-01-30T08:37:37.706Z,29.60
2023-01-30T08:40:05.643Z,38.30
2023-01-30T08:42:33.205Z,28.95
2023-01-30T08:45:00.720Z,37.20
2023-01-30T08:47:28.971Z,38.22
2023-01-30T08:49:56.921Z,26.38
2023-01-30T08:52:24.697Z,28.65
2023-01-30T08:54:52.610Z,53.60
2023-01-30T08:57:22.788Z,38.53
2023-01-30T08:59:51.483Z,25.05
2023-01-30T09:02:19.362Z,31.77
2023-01-30T09:04:47.542Z,31.38
2023-01-30T09:07:15.362Z,26.05
2023-01-30T09:09:42.809Z,28.70
2023-01-30T09:12:10.432Z,31.30
2023-01-30T09:14:38.010Z,30.02
2023-01-30T09:17:05.882Z,31.23
2023-01-30T09:19:36.212Z,37.00
2023-01-30T09:24:31.578Z,37.38
2023-01-30T09:26:59.223Z,26.52
2023-01-30T09:29:28.622Z,35.72
2023-01-30T09:31:56.991Z,28.48
2023-01-30T09:34:29.059Z,30.48
2023-01-30T09:36:57.394Z,28.17
2023-01-30T09:39:25.123Z,27.83
2023-01-30T09:42:02.176Z,30.98
2023-01-30T09:44:45.051Z,27.15
2023-01-30T09:47:14.119Z,26.13
2023-01-30T09:49:41.713Z,28.92
2023-01-30T09:52:09.882Z,42.63
2023-01-30T09:54:38.450Z,27.95
2023-01-30T09:57:22.203Z,33.75
2023-01-30T10:00:22.141Z,28.05
2023-01-30T10:03:08.483Z,25.38
2023-01-30T10:05:39.290Z,30.10
2023-01-30T10:08:12.855Z,26.70
2023-01-30T10:10:47.336Z,27.98
2023-01-30T10:13:28.643Z,20.35
2023-01-30T10:16:11.375Z,24.83
2023-01-30T10:18:39.195Z,29.15
2023-01-30T10:21:18.374Z,23.63
2023-01-30T10:23:54.139Z,29.55
2023-01-30T10:26:25.000Z,24.00
2023-01-30T10:29:06.170Z,29.10
2023-01-30T10:31:56.117Z,25.92
2023-01-30T10:34:26.503Z,30.45
2023-01-30T10:37:04.242Z,27.33
2023-01-30T10:39:31.910Z,17.42
2023-01-30T10:42:11.801Z,24.17
2023-01-30T10:44:41.402Z,30.48
2023-01-30T10:47:26.489Z,27.83
2023-01-30T10:49:58.569Z,25.15
2023-01-30T10:52:35.920Z,31.02
2023-01-30T10:55:37.305Z,32.22
2023-01-30T10:58:05.947Z,23.00
2023-01-30T11:00:42.816Z,28.58
2023-01-30T11:03:17.344Z,36.70
2023-01-30T11:05:57.038Z,25.45
2023-01-30T11:08:25.903Z,29.37
2023-01-30T11:10:54.541Z,32.35
2023-01-30T11:13:26.793Z,30.85
2023-01-30T11:15:55.257Z,28.13
2023-01-30T11:19:16.237Z,33.10
2023-01-30T11:21:15.568Z,28.15
2023-01-30T11:23:43.955Z,32.63
2023-01-30T11:26:45.145Z,29.20
2023-01-30T11:29:25.971Z,29.13
2023-01-30T11:31:54.206Z,29.67
2023-01-30T11:34:23.619Z,26.42
2023-01-30T11:36:51.778Z,34.65
2023-01-30T11:39:23.894Z,30.05
2023-01-30T11:41:55.464Z,31.35
2023-01-30T11:44:31.596Z,41.55
2023-01-30T11:47:00.160Z,37.17
2023-01-30T11:49:45.846Z,36.35
2023-01-30T11:52:22.373Z,26.83
2023-01-30T11:54:52.802Z,33.40
2023-01-30T11:59:54.490Z,32.22
2023-01-30T12:02:25.982Z,33.10
2023-01-30T12:04:56.194Z,33.20
2023-01-30T12:07:34.272Z,34.92
2023-01-30T12:10:01.806Z,31.45
2023-01-30T12:12:31.108Z,36.92
2023-01-30T12:15:04.879Z,24.45
2023-01-30T12:17:48.968Z,46.20
2023-01-30T12:20:38.295Z,33.88
2023-01-30T12:23:13.500Z,32.45
2023-01-30T12:25:44.581Z,35.67
2023-01-30T12:28:15.273Z,36.67
2023-01-30T12:30:53.028Z,38.28
2023-01-30T12:33:22.542Z,28.13
2023-01-30T12:36:04.099Z,25.13
2023-01-30T12:38:31.982Z,29.73
2023-01-30T12:41:23.269Z,40.03
2023-01-30T12:44:09.879Z,41.83
2023-01-30T12:46:56.222Z,30.52
2023-01-30T12:49:23.766Z,38.08
2023-01-30T12:51:52.707Z,25.98
2023-01-30T12:54:43.699Z,32.40
2023-01-30T12:57:17.301Z,37.45
2023-01-30T13:00:14.588Z,31.33
2023-01-30T13:03:00.883Z,27.33
2023-01-30T13:05:42.820Z,24.88
2023-01-30T13:08:13.515Z,27.45
2023-01-30T13:10:53.369Z,32.50
2023-01-30T13:13:45.465Z,25.23
2023-01-30T13:16:13.340Z,37.13
2023-01-30T13:18:48.481Z,26.80
2023-01-30T13:21:22.716Z,30.38
2023-01-30T13:23:53.023Z,21.52
2023-01-30T13:26:24.165Z,25.75
2023-01-30T13:29:03.229Z,39.05
2023-01-30T13:31:36.506Z,45.33
2023-01-30T13:34:08.367Z,29.00
2023-01-30T13:36:49.998Z,24.75
2023-01-30T13:39:21.281Z,30.35
2023-01-30T13:41:51.598Z,30.23
2023-01-30T13:44:22.708Z,34.70
2023-01-30T13:46:52.591Z,31.10
2023-01-30T13:49:24.879Z,28.63
2023-01-30T13:51:56.341Z,33.22
2023-01-30T13:54:28.668Z,33.95
2023-01-30T13:56:56.557Z,33.63
2023-01-30T13:59:36.582Z,27.52
2023-01-30T14:02:07.102Z,30.40
2023-01-30T14:07:26.525Z,26.38
2023-01-30T14:10:12.686Z,29.30
2023-01-30T14:12:45.783Z,39.08
2023-01-30T14:15:17.176Z,32.95
2023-01-30T14:18:05.562Z,35.47
2023-01-30T14:20:37.753Z,33.88
2023-01-30T14:23:29.897Z,30.05
2023-01-30T14:25:57.704Z,30.05
2023-01-30T14:28:30.696Z,36.92
2023-01-30T14:31:05.577Z,28.42
2023-01-30T14:33:35.193Z,36.38
2023-01-30T14:36:06.665Z,42.40
2023-01-30T14:38:39.230Z,30.92
2023-01-30T14:41:09.943Z,37.15
2023-01-30T14:43:45.908Z,37.45
2023-01-30T14:46:16.599Z,38.88
2023-01-30T14:48:51.249Z,45.47
2023-01-30T14:51:40.042Z,46.22
2023-01-30T14:54:27.465Z,32.67
2023-01-30T14:57:00.260Z,30.95
2023-01-30T14:59:33.898Z,26.35
2023-01-30T15:02:18.030Z,30.42
2023-01-30T15:04:53.289Z,27.63
2023-01-30T15:07:26.866Z,24.67
2023-01-30T15:09:57.378Z,40.13
2023-01-30T15:12:40.266Z,40.40
2023-01-30T15:15:15.057Z,46.47
2023-01-30T15:18:07.956Z,41.30
2023-01-30T15:20:55.177Z,41.60
2023-01-30T15:23:41.573Z,41.45
2023-01-30T15:26:27.993Z,35.47
2023-01-30T15:29:04.794Z,37.97
2023-01-30T15:31:32.485Z,37.10
2023-01-30T15:34:00.679Z,33.83
2023-01-30T15:36:33.425Z,41.97
2023-01-30T15:39:17.515Z,35.10
2023-01-30T15:41:45.412Z,37.88
2023-01-30T15:44:12.904Z,33.60
2023-01-30T15:46:40.592Z,39.55
2023-01-30T15:49:20.285Z,34.05
2023-01-30T15:51:48.355Z,39.03
2023-01-30T15:54:18.126Z,34.22
2023-01-30T15:56:48.670Z,52.90
2023-01-30T15:59:44.279Z,39.17
2023-01-30T16:02:20.569Z,27.38
2023-01-30T16:04:48.604Z,45.20
2023-01-30T16:07:17.957Z,28.58
2023-01-30T16:10:06.746Z,37.42
2023-01-30T16:12:41.042Z,47.75
2023-01-30T16:15:38.537Z,37.97
2023-01-30T16:18:24.709Z,27.55
2023-01-30T16:21:02.393Z,45.03
2023-01-30T16:23:38.678Z,34.90
2023-01-30T16:26:09.521Z,31.55
2023-01-30T16:28:39.137Z,28.80
2023-01-30T16:31:08.803Z,38.03
2023-01-30T16:33:39.201Z,40.85
2023-01-30T16:36:27.799Z,34.83
2023-01-30T16:38:56.420Z,30.45
2023-01-30T16:41:33.571Z,32.83
2023-01-30T16:44:20.135Z,40.17
2023-01-30T16:46:52.820Z,34.47
2023-01-30T16:49:26.886Z,34.65
2023-01-30T16:52:02.573Z,41.92
2023-01-30T16:54:31.868Z,41.85
2023-01-30T16:57:02.792Z,43.35
2023-01-30T16:59:34.669Z,38.55
2023-01-30T17:02:03.565Z,36.17
2023-01-30T17:04:32.347Z,33.70
2023-01-30T17:07:01.839Z,24.63
2023-01-30T17:09:43.033Z,32.15
2023-01-30T17:12:21.480Z,39.72
2023-01-30T17:14:49.140Z,46.25
2023-01-30T17:17:18.950Z,30.55
2023-01-30T17:19:48.943Z,34.88
2023-01-30T17:22:22.233Z,31.40
2023-01-30T17:24:52.140Z,38.33
2023-01-30T17:27:23.667Z,38.15
2023-01-30T17:29:51.653Z,36.15
2023-01-30T17:32:22.267Z,31.55
2023-01-30T17:34:50.709Z,33.15
2023-01-30T17:37:23.438Z,36.70
2023-01-30T17:39:52.132Z,23.00
2023-01-30T17:42:22.175Z,28.38
2023-01-30T17:44:51.162Z,28.42
2023-01-30T17:47:18.826Z,19.98
2023-01-30T17:49:46.424Z,19.35
2023-01-30T17:52:14.787Z,20.83
2023-01-30T17:54:42.389Z,24.58
2023-01-30T17:57:13.458Z,25.83
2023-01-30T17:59:41.298Z,34.42
2023-01-30T18:02:10.951Z,23.55
2023-01-30T18:04:40.410Z,21.38
2023-01-30T18:07:10.050Z,25.63
2023-01-30T18:09:38.365Z,31.30
2023-01-30T18:12:07.592Z,34.85
2023-01-30T18:14:35.230Z,34.58
2023-01-30T18:17:03.915Z,28.23
2023-01-30T18:19:31.911Z,24.38
2023-01-30T18:22:00.419Z,31.33
2023-01-30T18:24:33.787Z,29.20
2023-01-30T18:27:03.056Z,28.52
2023-01-30T18:29:31.286Z,28.90
2023-01-30T18:32:07.327Z,32.38
2023-01-30T18:34:35.460Z,26.75
2023-01-30T18:37:03.270Z,33.80
2023-01-30T18:39:32.092Z,40.00
2023-01-30T18:42:00.318Z,26.65
2023-01-30T18:44:35.941Z,26.30
2023-01-30T18:47:03.428Z,32.75
2023-01-30T18:49:31.677Z,27.77
2023-01-30T18:52:00.485Z,30.67
2023-01-30T18:54:28.506Z,31.35
2023-01-30T18:56:57.931Z,31.98
2023-01-30T18:59:26.717Z,23.02
2023-01-30T19:01:54.408Z,30.73
2023-01-30T19:04:22.212Z,26.23
2023-01-30T19:06:50.338Z,22.00
2023-01-30T19:09:20.397Z,29.98
2023-01-30T19:12:07.056Z,26.38
2023-01-30T19:14:35.085Z,30.83
2023-01-30T19:17:03.506Z,17.48
2023-01-30T19:19:32.513Z,27.38
2023-01-30T19:22:00.256Z,30.90
2023-01-30T19:24:28.014Z,31.63
2023-01-30T19:26:56.616Z,32.53
2023-01-30T19:29:24.300Z,23.17
2023-01-30T19:31:53.748Z,28.27
2023-01-30T19:34:23.320Z,27.58
2023-01-30T19:36:52.516Z,32.47
2023-01-30T19:39:21.579Z,29.60
2023-01-30T19:41:50.660Z,37.42
2023-01-30T19:44:18.783Z,26.27
2023-01-30T19:46:46.734Z,29.17
2023-01-30T19:49:14.386Z,20.77
2023-01-30T19:51:43.025Z,33.75
2023-01-30T19:54:14.009Z,34.50
2023-01-30T19:56:48.439Z,32.20
2023-01-30T19:59:16.888Z,39.20
2023-01-30T20:01:44.622Z,25.55
2023-01-30T20:04:15.971Z,33.10
2023-01-30T20:06:44.952Z,29.27
2023-01-30T20:09:12.964Z,33.40
2023-01-30T20:11:42.034Z,36.75
2023-01-30T20:14:11.087Z,34.38
2023-01-30T20:16:39.082Z,38.70
2023-01-30T20:19:08.415Z,32.95
2023-01-30T20:21:36.786Z,35.03
2023-01-30T20:24:04.624Z,35.85
2023-01-30T20:26:35.286Z,29.63
2023-01-30T20:29:03.369Z,34.85
2023-01-30T20:31:31.358Z,34.72
2023-01-30T20:34:01.080Z,37.50
2023-01-30T20:36:29.139Z,29.33
2023-01-30T20:38:57.349Z,40.40
2023-01-30T20:41:26.407Z,35.35
2023-01-30T20:43:57.405Z,33.85
2023-01-30T20:46:27.414Z,29.42
2023-01-30T20:48:56.576Z,32.33
2023-01-30T20:51:26.451Z,30.58
2023-01-30T20:53:55.345Z,30.75
2023-01-30T20:56:27.298Z,29.00
2023-01-30T20:58:54.976Z,32.20
2023-01-30T21:01:24.544Z,41.03
2023-01-30T21:03:53.337Z,22.98
2023-01-30T21:06:42.626Z,35.42
2023-01-30T21:09:12.480Z,30.42
2023-01-30T21:11:40.380Z,32.85
2023-01-30T21:14:08.128Z,35.58
2023-01-30T21:16:37.047Z,29.67
2023-01-30T21:19:06.321Z,26.27
2023-01-30T21:21:40.321Z,33.65
2023-01-30T21:24:09.621Z,29.42
2023-01-30T21:26:38.333Z,30.08
2023-01-30T21:29:09.498Z,29.67
2023-01-30T21:31:37.922Z,25.85
2023-01-30T21:34:06.012Z,32.95
2023-01-30T21:36:39.266Z,26.50
2023-01-30T21:39:28.164Z,29.63
2023-01-30T21:42:15.037Z,34.53
2023-01-30T21:44:42.898Z,34.00
2023-01-30T21:47:10.966Z,36.13
2023-01-30T21:49:40.663Z,34.95
2023-01-30T21:52:08.968Z,28.38
2023-01-30T21:54:36.625Z,34.72
2023-01-30T21:57:04.271Z,33.30
2023-01-30T21:59:33.655Z,37.10
2023-01-30T22:02:01.146Z,25.88
2023-01-30T22:04:28.921Z,42.42
2023-01-30T22:06:56.432Z,36.40
2023-01-30T22:09:23.868Z,32.53
2023-01-30T22:11:52.500Z,36.10
2023-01-30T22:14:21.444Z,32.08
2023-01-30T22:16:48.899Z,30.80
2023-01-30T22:19:18.061Z,32.08
2023-01-30T22:21:47.634Z,26.20
2023-01-30T22:24:15.394Z,28.17
2023-01-30T22:26:43.085Z,26.85
2023-01-30T22:29:10.577Z,26.80
2023-01-30T22:31:42.140Z,34.78
2023-01-30T22:34:10.188Z,37.90
2023-01-30T22:36:40.450Z,31.92
2023-01-30T22:39:08.494Z,41.50
2023-01-30T22:41:37.590Z,26.02
2023-01-30T22:44:06.574Z,30.42
2023-01-30T22:46:36.341Z,31.88
2023-01-30T22:49:04.998Z,30.70
2023-01-30T22:51:33.750Z,37.58
2023-01-30T22:54:02.989Z,41.95
2023-01-30T22:56:35.048Z,31.67
2023-01-30T22:59:02.734Z,39.08
2023-01-30T23:01:31.093Z,36.78
2023-01-30T23:04:01.786Z,28.15
2023-01-30T23:06:31.460Z,26.80
2023-01-30T23:09:00.377Z,32.03
2023-01-30T23:11:30.064Z,40.00
2023-01-30T23:13:59.335Z,27.13
2023-01-30T23:16:28.852Z,32.93
2023-01-30T23:18:56.436Z,33.22
2023-01-30T23:21:24.971Z,33.65
2023-01-30T23:23:54.307Z,34.25
2023-01-30T23:26:26.649Z,25.77
2023-01-30T23:28:54.388Z,22.05
2023-01-30T23:31:23.732Z,35.15
2023-01-30T23:33:57.881Z,40.50
2023-01-30T23:36:25.761Z,33.17
2023-01-30T23:38:54.967Z,35.30
2023-01-30T23:41:24.256Z,39.25
2023-01-30T23:43:53.499Z,32.25
2023-01-30T23:46:27.029Z,24.38
2023-01-30T23:48:56.799Z,27.95
2023-01-30T23:51:25.203Z,32.08
2023-01-30T23:53:53.118Z,43.58
2023-01-30T23:56:22.152Z,30.40
2023-01-30T23:58:50.423Z,30.83
